This is the latest recevied weather packets stored in our database for station/object KD0ISH. If no packets are shown the sender has not sent any weather packets the latest 10 day(s).
| Time | Temp. | Humidity | Pressure | Rain* | Wind** | Luminosity | Snow |
|---|---|---|---|---|---|---|---|
| 1777924678 | 26.67° C | 51% | 1006.1 hPa | 0 mm | - | 597 W/m² | - |
| 1777924374 | 26.67° C | 51% | 1006 hPa | 0 mm | - | 622 W/m² | - |
| 1777924071 | 26.67° C | 51% | 1006 hPa | 0 mm | - | 635 W/m² | - |
| 1777923767 | 26.67° C | 52% | 1006.1 hPa | 0 mm | - | 639 W/m² | - |
| 1777923463 | 26.67° C | 52% | 1006.2 hPa | 0 mm | - | 657 W/m² | - |
| 1777923161 | 26.67° C | 52% | 1006.2 hPa | 0 mm | - | 678 W/m² | - |
| 1777922859 | 26.67° C | 52% | 1006.4 hPa | 0 mm | - | 662 W/m² | - |
| 1777922557 | 27.22° C | 53% | 1006.3 hPa | 0 mm | - | 649 W/m² | - |
| 1777922256 | 27.22° C | 53% | 1006.4 hPa | 0 mm | - | 715 W/m² | - |
| 1777921952 | 26.67° C | 51% | 1006.2 hPa | 0 mm | - | 685 W/m² | - |
| 1777921647 | 26.67° C | 53% | 1006.5 hPa | 0 mm | - | 748 W/m² | - |
| 1777921344 | 26.67° C | 52% | 1006.3 hPa | 0 mm | - | 712 W/m² | - |
| 1777921041 | 26.67° C | 52% | 1006.4 hPa | 0 mm | - | 660 W/m² | - |
| 1777920738 | 26.11° C | 52% | 1006.3 hPa | 0 mm | - | 675 W/m² | - |
| 1777920434 | 25.56° C | 53% | 1006.3 hPa | 0 mm | - | 688 W/m² | - |
| 1777920129 | 26.11° C | 53% | 1006.3 hPa | 0 mm | - | 276 W/m² | - |
| 1777919826 | 26.67° C | 53% | 1006.6 hPa | 0 mm | - | 707 W/m² | - |
| 1777919523 | 26.11° C | 53% | 1006.4 hPa | 0 mm | - | 696 W/m² | - |
| 1777919221 | 26.11° C | 52% | 1006.5 hPa | 0 mm | - | 767 W/m² | - |
| 1777918918 | 25.56° C | 53% | 1006.7 hPa | 0 mm | - | 707 W/m² | - |
| 1777918615 | 26.11° C | 52% | 1006.6 hPa | 0 mm | - | 643 W/m² | - |
| 1777918313 | 25.56° C | 53% | 1006.6 hPa | 0 mm | - | 217 W/m² | - |
| 1777918012 | 25.56° C | 54% | 1006.9 hPa | 0 mm | - | 683 W/m² | - |
| 1777917710 | 26.11° C | 53% | 1006.7 hPa | 0 mm | - | 294 W/m² | - |
| 1777917407 | 26.11° C | 54% | 1006.9 hPa | 0 mm | - | 320 W/m² | - |
* Rain latest hour (hover to see other rain measurements)
** Current wind speed in m/s (hover to see current wind gust speed)